Terminal Aerodrome Forecast
Issued by NWS Blacksburg, VA

Current Version | Previous Version | Text Only | Print | Product List | Glossary On
Versions: 1 2 3 4 5 6 7 8 9 10 11 12 13 14 15 16 17 18 19 20 21 22 23 24 25 26 27 28 29 30 31 32 33 34 35 36 37 38
000
FTUS41 KRNK 182328
TAFBLF
TAF
KBLF 182328Z 1900/1924 20011G22KT P6SM OVC040
      TEMPO 1900/1903 4SM -SHRA OVC025
     FM190300 22014G23KT 6SM -SHRA OVC045
     FM190400 23015G24KT 4SM -SHRA OVC025
     FM190600 27016G24KT P6SM OVC015
      TEMPO 1906/1907 2SM -SHRA OVC007=

USA.gov is the U.S. government's official web portal to all federal, state and local government web resources and services.